Terminal Aerodrome Forecast
Issued by NWS

Home | Current Version | Previous Version | Text Only | Print | Product List | Glossary On
Versions: 1 2 3 4 5 6 7 8 9 10 11 12 13 14 15 16 17
000
FTUS43 KABR 201500 AAA
TAFPIR
TAF AMD
KPIR 201555Z 2016/2112 15015KT P6SM SCT080 BKN150
     FM201800 14015KT P6SM VCSH BKN080
      TEMPO 2022/2102 TS BKN050CB
     FM210400 14006KT P6SM SKC=

USA.gov is the U.S. government's official web portal to all federal, state and local government web resources and services.